createdAt,value
2023-03-03T00:01:07.630Z,-1.69
2023-03-03T00:04:12.096Z,-2.35
2023-03-03T00:07:22.408Z,-2.01
2023-03-03T00:10:26.332Z,-2.25
2023-03-03T00:13:33.410Z,-2.09
2023-03-03T00:16:40.254Z,-1.54
2023-03-03T00:19:47.955Z,-1.36
2023-03-03T00:22:52.198Z,-0.97
2023-03-03T00:25:57.607Z,-0.68
2023-03-03T00:29:02.852Z,-0.91
2023-03-03T00:32:26.829Z,0.03
2023-03-03T00:35:39.419Z,-0.42
2023-03-03T00:38:45.120Z,-0.04
2023-03-03T00:41:50.518Z,-0.20
2023-03-03T00:45:01.528Z,0.27
2023-03-03T00:48:28.593Z,0.64
2023-03-03T00:51:37.798Z,0.01
2023-03-03T00:54:42.081Z,0.98
2023-03-03T00:57:46.389Z,1.38
2023-03-03T01:00:55.686Z,1.19
2023-03-03T01:04:05.818Z,1.81
2023-03-03T01:07:10.181Z,1.81
2023-03-03T01:10:14.276Z,2.59
2023-03-03T01:13:19.354Z,2.40
2023-03-03T01:16:23.789Z,2.27
2023-03-03T01:19:28.216Z,2.45
2023-03-03T01:22:32.526Z,2.80
2023-03-03T01:25:37.365Z,3.53
2023-03-03T01:28:42.780Z,3.29
2023-03-03T01:31:47.199Z,3.29
2023-03-03T01:34:51.315Z,3.08
2023-03-03T01:37:55.228Z,2.51
2023-03-03T01:41:01.410Z,2.14
2023-03-03T01:44:05.913Z,1.48
2023-03-03T01:47:15.736Z,2.52
2023-03-03T01:50:37.559Z,3.41
2023-03-03T01:53:47.555Z,4.02
2023-03-03T01:56:56.877Z,3.74
2023-03-03T02:00:03.715Z,2.91
2023-03-03T02:03:16.454Z,2.69
2023-03-03T02:06:28.863Z,1.73
2023-03-03T02:10:00.754Z,1.81
2023-03-03T02:13:06.374Z,-0.03
2023-03-03T02:16:10.452Z,-0.03
2023-03-03T02:19:28.514Z,0.32
2023-03-03T02:23:11.569Z,-0.12
2023-03-03T02:26:26.474Z,-0.18
2023-03-03T02:29:36.132Z,-0.74
2023-03-03T02:32:42.756Z,-0.34
2023-03-03T02:35:47.081Z,-0.20
2023-03-03T02:38:55.691Z,0.09
2023-03-03T02:42:12.031Z,-0.34
2023-03-03T02:45:30.210Z,0.12
2023-03-03T02:48:34.134Z,0.13
2023-03-03T02:51:38.903Z,0.24
2023-03-03T02:54:43.266Z,0.19
2023-03-03T02:57:47.752Z,-0.70
2023-03-03T03:00:52.286Z,-1.08
2023-03-03T03:04:00.067Z,-0.09
2023-03-03T03:07:05.246Z,0.14
2023-03-03T03:10:12.946Z,0.48
2023-03-03T03:13:19.145Z,0.07
2023-03-03T03:16:23.879Z,-0.48
2023-03-03T03:19:29.056Z,-0.54
2023-03-03T03:22:36.518Z,-0.24
2023-03-03T03:25:47.429Z,0.08
2023-03-03T03:28:59.298Z,0.09
2023-03-03T03:32:03.975Z,-0.01
2023-03-03T03:35:08.236Z,0.35
2023-03-03T03:38:13.446Z,0.50
2023-03-03T03:41:18.650Z,-0.85
2023-03-03T03:44:24.887Z,-0.48
2023-03-03T03:47:30.414Z,-0.23
2023-03-03T03:50:35.619Z,-0.10
2023-03-03T03:53:40.094Z,0.10
2023-03-03T03:56:44.132Z,-0.91
2023-03-03T03:59:50.467Z,-0.42
2023-03-03T04:02:55.677Z,0.33
2023-03-03T04:06:00.957Z,-0.04
2023-03-03T04:09:05.394Z,-0.21
2023-03-03T04:12:10.812Z,-0.80
2023-03-03T04:15:16.457Z,-0.75
2023-03-03T04:18:21.294Z,-0.99
2023-03-03T04:21:26.082Z,-0.64
2023-03-03T04:24:32.100Z,-0.58
2023-03-03T04:27:38.109Z,-0.58
2023-03-03T04:30:42.369Z,-0.33
2023-03-03T04:33:46.161Z,-0.94
2023-03-03T04:36:50.431Z,-1.09
2023-03-03T04:39:55.246Z,-1.09
2023-03-03T04:42:59.724Z,-1.44
2023-03-03T04:46:04.198Z,-1.57
2023-03-03T04:49:12.307Z,-1.10
2023-03-03T04:52:19.338Z,-1.03
2023-03-03T04:55:24.178Z,-0.38
2023-03-03T04:58:29.014Z,-1.00
2023-03-03T05:01:33.165Z,-0.65
2023-03-03T05:04:38.254Z,-0.79
2023-03-03T05:07:42.207Z,-1.38
2023-03-03T05:10:46.136Z,-0.56
2023-03-03T05:13:50.621Z,-1.12
2023-03-03T05:16:54.845Z,-1.21
2023-03-03T05:19:59.423Z,-0.56
2023-03-03T05:23:05.070Z,-0.81
2023-03-03T05:26:09.607Z,-0.88
2023-03-03T05:29:13.946Z,-1.24
2023-03-03T05:32:18.762Z,-1.09
2023-03-03T05:35:23.051Z,-1.04
2023-03-03T05:38:27.745Z,-0.85
2023-03-03T05:41:32.062Z,-1.21
2023-03-03T05:44:36.495Z,-1.25
2023-03-03T05:47:40.790Z,-1.28
2023-03-03T05:50:44.990Z,-1.09
2023-03-03T05:53:49.552Z,-1.61
2023-03-03T05:56:58.203Z,-1.60
2023-03-03T06:00:01.928Z,-1.53
2023-03-03T06:03:16.004Z,-1.61
2023-03-03T06:06:20.416Z,-1.75
2023-03-03T06:09:25.073Z,-1.91
2023-03-03T06:12:29.438Z,-1.39
2023-03-03T06:15:33.731Z,-1.48
2023-03-03T06:18:38.208Z,-1.81
2023-03-03T06:21:42.870Z,-1.52
2023-03-03T06:24:47.427Z,-1.06
2023-03-03T06:27:51.828Z,-0.79
2023-03-03T06:30:56.877Z,-1.07
2023-03-03T06:34:02.908Z,-1.73
2023-03-03T06:37:07.986Z,-1.90
2023-03-03T06:40:12.509Z,-2.08
2023-03-03T06:43:17.557Z,-2.19
2023-03-03T06:46:21.902Z,-2.10
2023-03-03T06:49:25.951Z,-1.59
2023-03-03T06:52:30.343Z,-1.52
2023-03-03T06:55:34.697Z,-1.88
2023-03-03T06:58:38.972Z,-2.47
2023-03-03T07:01:44.358Z,-2.74
2023-03-03T07:04:49.022Z,-2.08
2023-03-03T07:07:53.491Z,-2.22
2023-03-03T07:11:02.432Z,-2.24
2023-03-03T07:14:15.333Z,-2.34
2023-03-03T07:17:21.848Z,-2.22
2023-03-03T07:20:35.885Z,-2.27
2023-03-03T07:23:44.545Z,-2.72
2023-03-03T07:26:48.961Z,-2.52
2023-03-03T07:29:57.122Z,-2.66
2023-03-03T07:33:01.817Z,-2.41
2023-03-03T07:36:23.713Z,-2.65
2023-03-03T07:39:39.071Z,-2.59
2023-03-03T07:42:45.176Z,-2.63
2023-03-03T07:46:04.606Z,-3.20
2023-03-03T07:49:37.656Z,-3.26
2023-03-03T07:52:45.632Z,-3.63
2023-03-03T07:55:50.676Z,-3.46
2023-03-03T07:58:57.048Z,-3.65
2023-03-03T08:02:02.372Z,-3.68
2023-03-03T08:05:34.847Z,-3.75
2023-03-03T08:08:39.202Z,-4.20
2023-03-03T08:12:15.272Z,-3.79
2023-03-03T08:15:29.459Z,-3.88
2023-03-03T08:18:39.757Z,-3.86
2023-03-03T08:21:43.621Z,-4.03
2023-03-03T08:24:49.073Z,-4.09
2023-03-03T08:27:53.098Z,-4.27
2023-03-03T08:31:12.990Z,-4.30
2023-03-03T08:34:22.511Z,-4.16
2023-03-03T08:37:26.333Z,-4.46
2023-03-03T08:40:30.642Z,-4.42
2023-03-03T08:43:36.012Z,-4.54
2023-03-03T08:46:40.451Z,-4.75
2023-03-03T08:49:44.891Z,-4.86
2023-03-03T08:52:49.197Z,-4.77
2023-03-03T08:55:53.484Z,-4.74
2023-03-03T08:59:02.616Z,-4.96
2023-03-03T09:02:08.340Z,-4.75
2023-03-03T09:05:13.257Z,-4.94
2023-03-03T09:08:17.021Z,-4.90
2023-03-03T09:11:29.015Z,-5.06
2023-03-03T09:14:33.090Z,-5.15
2023-03-03T09:17:39.384Z,-5.31
2023-03-03T09:20:48.948Z,-5.41
2023-03-03T09:23:57.585Z,-5.39
2023-03-03T09:27:02.407Z,-5.40
2023-03-03T09:30:32.145Z,-5.50
2023-03-03T09:33:50.602Z,-5.56
2023-03-03T09:36:57.504Z,-5.65
2023-03-03T09:40:01.748Z,-5.70
2023-03-03T09:43:24.972Z,-5.65
2023-03-03T09:47:03.714Z,-5.71
2023-03-03T09:50:22.724Z,-5.96
2023-03-03T09:54:03.798Z,-6.19
2023-03-03T09:57:23.528Z,-5.67
2023-03-03T10:00:48.956Z,-5.65
2023-03-03T10:04:21.700Z,-5.76
2023-03-03T10:08:14.550Z,-6.09
2023-03-03T10:11:36.721Z,-6.17
2023-03-03T10:14:41.445Z,-6.01
2023-03-03T10:17:55.294Z,-5.97
2023-03-03T10:21:05.875Z,-5.71
2023-03-03T10:24:29.046Z,-6.00
2023-03-03T10:28:00.746Z,-6.51
2023-03-03T10:31:28.910Z,-6.33
2023-03-03T10:35:10.742Z,-6.13
2023-03-03T10:38:56.261Z,-6.48
2023-03-03T10:42:03.797Z,-6.16
2023-03-03T10:45:28.762Z,-6.53
2023-03-03T10:49:10.501Z,-7.17
2023-03-03T10:52:32.573Z,-6.79
2023-03-03T10:55:42.695Z,-6.91
2023-03-03T10:58:47.268Z,-7.29
2023-03-03T11:02:08.256Z,-7.25
2023-03-03T11:05:31.438Z,-7.15
2023-03-03T11:09:00.880Z,-7.25
2023-03-03T11:12:48.439Z,-7.09
2023-03-03T11:16:07.729Z,-7.29
2023-03-03T11:19:35.471Z,-7.18
2023-03-03T11:22:55.526Z,-6.84
2023-03-03T11:26:29.532Z,-6.81
2023-03-03T11:29:55.049Z,-7.17
2023-03-03T11:33:11.046Z,-7.34
2023-03-03T11:36:18.339Z,-7.67
2023-03-03T11:39:29.838Z,-7.92
2023-03-03T11:43:20.641Z,-7.92
2023-03-03T11:46:51.042Z,-8.12
2023-03-03T11:50:01.433Z,-8.46
2023-03-03T11:53:38.260Z,-8.48
2023-03-03T11:56:45.685Z,-8.35
2023-03-03T12:00:01.510Z,-8.96
2023-03-03T12:04:02.363Z,-8.89
2023-03-03T12:07:22.274Z,-10.07
2023-03-03T12:10:56.361Z,-8.62
2023-03-03T12:14:27.256Z,-9.23
2023-03-03T12:17:56.446Z,-9.93
2023-03-03T12:21:06.823Z,-9.45
2023-03-03T12:24:44.573Z,-9.28
2023-03-03T12:28:18.873Z,-9.58
2023-03-03T12:31:46.773Z,-9.18
2023-03-03T12:35:04.945Z,-9.50
2023-03-03T12:38:29.000Z,-9.55
2023-03-03T12:41:35.064Z,-9.68
2023-03-03T12:45:12.784Z,-9.95
2023-03-03T12:48:39.601Z,-9.56
2023-03-03T12:51:53.129Z,-9.54
2023-03-03T12:55:35.740Z,-9.99
2023-03-03T12:58:46.092Z,-10.20
2023-03-03T13:02:09.209Z,-9.68
2023-03-03T13:05:45.937Z,-9.78
2023-03-03T13:09:04.314Z,-10.01
2023-03-03T13:12:14.565Z,-10.01
2023-03-03T13:15:34.966Z,-10.14
2023-03-03T13:19:03.827Z,-10.27
2023-03-03T13:22:19.290Z,-10.27
2023-03-03T13:25:51.859Z,-10.28
2023-03-03T13:29:12.148Z,-10.18
2023-03-03T13:32:22.216Z,-10.41
2023-03-03T13:35:50.306Z,-10.28
2023-03-03T13:38:59.073Z,-10.39
2023-03-03T13:42:17.344Z,-10.82
2023-03-03T13:45:43.492Z,-11.03
2023-03-03T13:49:04.689Z,-10.84
2023-03-03T13:52:26.273Z,-11.24
2023-03-03T13:55:35.341Z,-11.15
2023-03-03T13:59:06.570Z,-10.99
2023-03-03T14:03:01.553Z,-11.05
2023-03-03T14:06:14.254Z,-10.88
2023-03-03T14:09:55.135Z,-10.61
2023-03-03T14:13:18.520Z,-10.53
2023-03-03T14:16:57.785Z,-10.51
2023-03-03T14:20:24.967Z,-10.83
2023-03-03T14:23:51.317Z,-11.31
2023-03-03T14:26:59.267Z,-11.62
2023-03-03T14:30:44.964Z,-11.79
2023-03-03T14:34:14.809Z,-11.66
2023-03-03T14:37:26.344Z,-11.95
2023-03-03T14:40:35.497Z,-12.14
2023-03-03T14:43:42.677Z,-12.03
2023-03-03T14:47:06.845Z,-11.76
2023-03-03T14:50:30.906Z,-11.56
2023-03-03T14:53:44.755Z,-11.56
2023-03-03T14:57:16.367Z,-11.70
2023-03-03T15:00:24.197Z,-12.04
2023-03-03T15:03:29.746Z,-11.99
2023-03-03T15:06:39.731Z,-11.90
2023-03-03T15:09:51.362Z,-12.05
2023-03-03T15:12:55.939Z,-12.23
2023-03-03T15:16:32.529Z,-12.43
2023-03-03T15:19:45.746Z,-12.38
2023-03-03T15:23:11.457Z,-12.53
2023-03-03T15:26:28.688Z,-12.36
2023-03-03T15:29:33.466Z,-12.38
2023-03-03T15:33:13.792Z,-12.66
2023-03-03T15:36:49.084Z,-12.39
2023-03-03T15:39:55.950Z,-12.49
2023-03-03T15:43:26.236Z,-12.34
2023-03-03T15:46:34.001Z,-12.65
2023-03-03T15:50:07.518Z,-12.65
2023-03-03T15:54:06.337Z,-13.14
2023-03-03T15:57:32.324Z,-13.07
2023-03-03T16:00:49.886Z,-12.84
2023-03-03T16:03:58.055Z,-13.07
2023-03-03T16:07:26.856Z,-13.00
2023-03-03T16:10:53.461Z,-13.06
2023-03-03T16:14:18.489Z,-13.36
2023-03-03T16:17:31.368Z,-13.26
2023-03-03T16:21:03.186Z,-13.39
2023-03-03T16:24:23.171Z,-13.30
2023-03-03T16:27:30.571Z,-13.32
2023-03-03T16:31:13.746Z,-13.68
2023-03-03T16:34:27.363Z,-13.61
2023-03-03T16:37:40.877Z,-13.55
2023-03-03T16:40:55.432Z,-13.43
2023-03-03T16:44:31.860Z,-13.28
2023-03-03T16:47:46.139Z,-13.39
2023-03-03T16:51:05.801Z,-13.46
2023-03-03T16:54:34.527Z,-13.29
2023-03-03T16:57:52.183Z,-13.46
2023-03-03T17:01:26.325Z,-13.55
2023-03-03T17:04:45.456Z,-13.50
2023-03-03T17:08:04.670Z,-13.46
2023-03-03T17:11:44.251Z,-13.97
2023-03-03T17:15:08.639Z,-13.86
2023-03-03T17:18:40.120Z,-14.30
2023-03-03T17:22:29.208Z,-13.82
2023-03-03T17:25:51.698Z,-13.77
2023-03-03T17:29:28.722Z,-14.16
2023-03-03T17:33:00.870Z,-14.42
2023-03-03T17:36:28.397Z,-14.29
2023-03-03T17:39:32.745Z,-14.26
2023-03-03T17:43:03.297Z,-14.32
2023-03-03T17:46:20.539Z,-14.36
2023-03-03T17:49:36.777Z,-14.29
2023-03-03T17:52:58.778Z,-14.21
2023-03-03T17:56:03.157Z,-14.16
2023-03-03T17:59:45.812Z,-14.19
2023-03-03T18:02:53.242Z,-14.40
2023-03-03T18:06:18.348Z,-14.78
2023-03-03T18:09:31.628Z,-14.78
2023-03-03T18:12:56.073Z,-14.82
2023-03-03T18:16:12.702Z,-14.66
2023-03-03T18:19:32.020Z,-14.60
2023-03-03T18:22:49.671Z,-14.87
2023-03-03T18:26:04.731Z,-14.88
2023-03-03T18:29:29.309Z,-14.80
2023-03-03T18:32:57.354Z,-14.46
2023-03-03T18:36:40.088Z,-14.50
2023-03-03T18:39:53.541Z,-14.24
2023-03-03T18:42:58.204Z,-14.63
2023-03-03T18:46:05.512Z,-14.91
2023-03-03T18:49:14.002Z,-14.52
2023-03-03T18:52:26.553Z,-14.64
2023-03-03T18:55:41.343Z,-14.51
2023-03-03T18:58:46.425Z,-14.37
2023-03-03T19:01:52.723Z,-14.22
2023-03-03T19:04:58.153Z,-14.25
2023-03-03T19:08:17.665Z,-14.73
2023-03-03T19:11:35.979Z,-14.87
2023-03-03T19:14:49.610Z,-14.99
2023-03-03T19:17:58.886Z,-14.90
2023-03-03T19:21:07.612Z,-14.84
2023-03-03T19:24:24.308Z,-14.76
2023-03-03T19:27:45.133Z,-15.18
2023-03-03T19:30:59.386Z,-15.40
2023-03-03T19:34:22.274Z,-15.57
2023-03-03T19:37:43.573Z,-15.49
2023-03-03T19:41:10.513Z,-15.49
2023-03-03T19:44:33.064Z,-15.24
2023-03-03T19:47:40.681Z,-15.36
2023-03-03T19:51:24.317Z,-15.50
2023-03-03T19:54:51.133Z,-15.39
2023-03-03T19:58:23.208Z,-15.23
2023-03-03T20:01:51.799Z,-15.24
2023-03-03T20:04:59.160Z,-15.16
2023-03-03T20:08:41.258Z,-15.23
2023-03-03T20:12:22.326Z,-15.23
2023-03-03T20:15:48.618Z,-15.27
2023-03-03T20:19:09.080Z,-15.23
2023-03-03T20:22:19.184Z,-15.45
2023-03-03T20:25:32.215Z,-15.63
2023-03-03T20:28:45.440Z,-15.63
2023-03-03T20:32:24.505Z,-15.67
2023-03-03T20:35:40.778Z,-15.63
2023-03-03T20:39:08.426Z,-15.63
2023-03-03T20:42:52.946Z,-15.64
2023-03-03T20:46:13.822Z,-15.93
2023-03-03T20:49:39.571Z,-15.98
2023-03-03T20:52:52.343Z,-16.03
2023-03-03T20:55:56.635Z,-15.65
2023-03-03T20:59:17.223Z,-15.79
2023-03-03T21:03:07.046Z,-15.91
2023-03-03T21:06:22.065Z,-15.73
2023-03-03T21:09:34.186Z,-15.69
2023-03-03T21:12:44.102Z,-16.01
2023-03-03T21:16:06.247Z,-16.03
2023-03-03T21:19:25.998Z,-16.17
2023-03-03T21:22:30.307Z,-15.98
2023-03-03T21:25:54.482Z,-15.95
2023-03-03T21:29:03.677Z,-16.21
2023-03-03T21:32:34.140Z,-16.40
2023-03-03T21:35:59.633Z,-16.19
2023-03-03T21:39:25.258Z,-16.34
2023-03-03T21:42:46.057Z,-16.49
2023-03-03T21:45:50.079Z,-16.25
2023-03-03T21:48:54.359Z,-16.32
2023-03-03T21:51:59.653Z,-15.89
2023-03-03T21:55:03.583Z,-16.32
2023-03-03T21:58:07.552Z,-16.37
2023-03-03T22:01:12.089Z,-16.44
2023-03-03T22:04:16.073Z,-16.48
2023-03-03T22:07:19.843Z,-16.31
2023-03-03T22:10:24.351Z,-15.79
2023-03-03T22:13:30.260Z,-15.90
2023-03-03T22:16:35.678Z,-16.30
2023-03-03T22:19:39.646Z,-16.39
2023-03-03T22:22:44.365Z,-15.68
2023-03-03T22:25:48.672Z,-15.57
2023-03-03T22:28:52.618Z,-15.92
2023-03-03T22:31:56.600Z,-15.71
2023-03-03T22:35:00.849Z,-15.37
2023-03-03T22:38:05.915Z,-14.93
2023-03-03T22:41:09.996Z,-15.19
2023-03-03T22:44:14.245Z,-15.14
2023-03-03T22:47:18.676Z,-14.47
2023-03-03T22:50:23.015Z,-13.03
2023-03-03T22:53:27.852Z,-11.67
2023-03-03T22:56:32.117Z,-10.93
2023-03-03T22:59:36.662Z,-10.80
2023-03-03T23:02:42.933Z,-10.37
2023-03-03T23:05:49.042Z,-10.12
2023-03-03T23:08:55.443Z,-10.38
2023-03-03T23:12:00.216Z,-9.43
2023-03-03T23:15:07.296Z,-8.21
2023-03-03T23:18:11.838Z,-8.06
2023-03-03T23:21:16.009Z,-9.02
2023-03-03T23:24:19.868Z,-8.58
2023-03-03T23:27:24.501Z,-8.86
2023-03-03T23:30:28.438Z,-8.76
2023-03-03T23:33:32.676Z,-8.57
2023-03-03T23:36:36.536Z,-8.17
2023-03-03T23:39:41.936Z,-7.63
2023-03-03T23:42:46.746Z,-7.69
2023-03-03T23:45:50.628Z,-7.47
2023-03-03T23:48:54.604Z,-7.61
2023-03-03T23:51:58.542Z,-7.66
2023-03-03T23:55:02.937Z,-7.88
2023-03-03T23:58:07.348Z,-7.82
